Time;durP1;ratioP1;P1;durP2;ratioP2;P2;SDS_P1;SDS_P2;PMS_P1;PMS_P2;Temp;Humidity;BMP_temperature;BMP_pressure;BME280_temperature;BME280_humidity;BME280_pressure;Samples;Min_cycle;Max_cycle;Signal;HPM_P1;HPM_P2
2022/03/25 00:00:33;;;;;;;28.23;17.07;;;;;;;;;;5051225;28;20435;-58
2022/03/25 00:02:59;;;;;;;23.63;17.50;;;;;;;;;;5051486;28;20438;-58
2022/03/25 00:05:26;;;;;;;22.60;16.70;;;;;;;;;;5051331;28;20484;-57
2022/03/25 00:07:52;;;;;;;27.83;17.20;;;;;;;;;;5051060;28;20442;-58
2022/03/25 00:10:19;;;;;;;20.73;16.10;;;;;;;;;;5051266;28;20447;-58
2022/03/25 00:12:45;;;;;;;24.87;17.10;;;;;;;;;;5049280;28;20201;-58
2022/03/25 00:15:11;;;;;;;23.77;16.93;;;;;;;;;;5051372;28;20434;-58
2022/03/25 00:17:37;;;;;;;22.53;16.80;;;;;;;;;;5050935;28;20888;-58
2022/03/25 00:20:04;;;;;;;23.80;16.47;;;;;;;;;;5051331;28;20427;-58
2022/03/25 00:22:31;;;;;;;24.00;16.87;;;;;;;;;;5051224;28;20445;-58
2022/03/25 00:24:57;;;;;;;22.10;15.70;;;;;;;;;;5050997;28;20509;-58
2022/03/25 00:27:23;;;;;;;25.57;17.77;;;;;;;;;;5051010;28;20925;-59
2022/03/25 00:29:49;;;;;;;24.33;17.37;;;;;;;;;;5054029;28;20204;-58
2022/03/25 00:32:16;;;;;;;32.97;18.00;;;;;;;;;;5054878;28;20197;-58
2022/03/25 00:34:42;;;;;;;22.93;16.77;;;;;;;;;;5054477;28;20215;-58
2022/03/25 00:37:08;;;;;;;26.13;18.33;;;;;;;;;;5054771;28;20438;-58
2022/03/25 00:39:35;;;;;;;24.57;19.00;;;;;;;;;;5054556;28;20764;-58
2022/03/25 00:42:03;;;;;;;36.67;21.17;;;;;;;;;;5054197;28;20674;-58
2022/03/25 00:44:29;;;;;;;23.77;18.13;;;;;;;;;;5074337;28;20844;-59
2022/03/25 00:46:55;;;;;;;25.37;18.03;;;;;;;;;;5074207;28;20970;-59
2022/03/25 00:49:22;;;;;;;23.20;16.77;;;;;;;;;;5072717;28;20422;-60
2022/03/25 00:51:48;;;;;;;23.27;17.50;;;;;;;;;;5074331;28;20293;-62
2022/03/25 00:54:14;;;;;;;24.07;16.97;;;;;;;;;;5074605;28;20468;-60
2022/03/25 00:56:41;;;;;;;24.70;18.33;;;;;;;;;;5074292;28;20206;-60
2022/03/25 00:59:08;;;;;;;26.60;17.87;;;;;;;;;;5074287;28;20508;-60
2022/03/25 01:01:34;;;;;;;26.00;17.17;;;;;;;;;;5074289;28;20440;-61
2022/03/25 01:04:00;;;;;;;21.80;16.77;;;;;;;;;;5074272;28;20464;-60
2022/03/25 01:06:26;;;;;;;23.13;17.43;;;;;;;;;;5074139;28;20426;-60
2022/03/25 01:08:52;;;;;;;23.87;16.93;;;;;;;;;;5074179;28;20944;-60
2022/03/25 01:11:18;;;;;;;19.63;16.00;;;;;;;;;;5074200;28;20434;-60
2022/03/25 01:13:45;;;;;;;22.70;16.13;;;;;;;;;;5074162;28;20582;-61
2022/03/25 01:16:11;;;;;;;23.33;16.67;;;;;;;;;;5074085;28;20695;-59
2022/03/25 01:18:37;;;;;;;21.90;16.47;;;;;;;;;;5073906;28;20481;-64
2022/03/25 01:21:03;;;;;;;25.43;16.53;;;;;;;;;;5074048;28;20480;-64
2022/03/25 01:23:29;;;;;;;23.33;15.97;;;;;;;;;;5073743;28;20470;-64
2022/03/25 01:25:55;;;;;;;20.87;15.73;;;;;;;;;;5073458;28;20527;-64
2022/03/25 01:28:23;;;;;;;25.37;16.00;;;;;;;;;;5073849;28;20219;-63
2022/03/25 01:30:51;;;;;;;22.87;16.67;;;;;;;;;;5073638;28;20432;-64
2022/03/25 01:33:18;;;;;;;23.90;15.80;;;;;;;;;;5073816;28;20450;-64
2022/03/25 01:35:45;;;;;;;21.17;15.37;;;;;;;;;;5073672;28;20437;-64
2022/03/25 01:38:11;;;;;;;23.57;15.97;;;;;;;;;;5073655;28;20821;-63
2022/03/25 01:40:38;;;;;;;24.00;16.27;;;;;;;;;;5072337;28;20426;-63
2022/03/25 01:43:07;;;;;;;19.17;15.63;;;;;;;;;;5073533;28;20199;-63
2022/03/25 01:45:34;;;;;;;21.80;15.27;;;;;;;;;;5073370;28;20426;-63
2022/03/25 01:48:03;;;;;;;22.53;15.57;;;;;;;;;;5073608;28;20453;-63
2022/03/25 01:50:29;;;;;;;22.20;15.43;;;;;;;;;;5073330;28;20460;-63
2022/03/25 01:52:55;;;;;;;21.00;15.27;;;;;;;;;;5073225;28;20520;-63
2022/03/25 01:55:26;;;;;;;20.97;15.53;;;;;;;;;;5073256;28;21087;-63
2022/03/25 01:57:54;;;;;;;22.53;15.10;;;;;;;;;;5073450;28;20569;-63
2022/03/25 02:00:21;;;;;;;22.90;15.00;;;;;;;;;;5073147;28;20488;-63
2022/03/25 02:02:47;;;;;;;20.20;14.97;;;;;;;;;;5073310;28;20605;-63
2022/03/25 02:05:15;;;;;;;18.73;14.50;;;;;;;;;;5073118;28;20563;-63
2022/03/25 02:07:41;;;;;;;18.13;14.13;;;;;;;;;;5072977;28;20940;-63
2022/03/25 02:10:07;;;;;;;21.43;14.83;;;;;;;;;;5072873;28;20937;-63
2022/03/25 02:12:35;;;;;;;19.00;14.10;;;;;;;;;;5072815;28;20510;-64
2022/03/25 02:15:01;;;;;;;20.07;14.33;;;;;;;;;;5072961;28;20441;-63
2022/03/25 02:17:27;;;;;;;19.90;14.23;;;;;;;;;;5072711;28;20446;-63
2022/03/25 02:19:53;;;;;;;20.47;13.37;;;;;;;;;;5072873;28;20434;-64
2022/03/25 02:22:20;;;;;;;17.67;14.07;;;;;;;;;;5072656;28;20665;-64
2022/03/25 02:24:47;;;;;;;18.27;14.70;;;;;;;;;;5072351;28;20615;-63
2022/03/25 02:27:13;;;;;;;24.47;15.30;;;;;;;;;;5072770;28;20963;-63
2022/03/25 02:29:39;;;;;;;20.07;13.80;;;;;;;;;;5072529;28;20428;-63
2022/03/25 02:32:06;;;;;;;19.67;13.97;;;;;;;;;;5072587;28;20513;-64
2022/03/25 02:34:32;;;;;;;20.17;14.43;;;;;;;;;;5072433;28;20438;-63
2022/03/25 02:36:58;;;;;;;19.87;13.77;;;;;;;;;;5072637;28;20448;-63
2022/03/25 02:39:27;;;;;;;21.17;13.57;;;;;;;;;;5072330;28;20701;-63
2022/03/25 02:41:53;;;;;;;23.03;13.90;;;;;;;;;;5072405;28;20211;-63
2022/03/25 02:44:19;;;;;;;17.03;12.77;;;;;;;;;;5072405;28;20449;-63
2022/03/25 02:46:45;;;;;;;22.80;13.67;;;;;;;;;;5072203;28;20476;-63
2022/03/25 02:49:11;;;;;;;21.33;14.30;;;;;;;;;;5072387;28;20630;-63
2022/03/25 02:51:37;;;;;;;17.30;14.90;;;;;;;;;;5071843;28;20469;-64
2022/03/25 02:54:03;;;;;;;21.70;14.57;;;;;;;;;;5072312;28;20206;-63
2022/03/25 02:56:31;;;;;;;19.27;13.87;;;;;;;;;;5072161;28;20525;-63
2022/03/25 02:58:57;;;;;;;20.50;14.60;;;;;;;;;;5072326;28;20225;-63
2022/03/25 03:01:23;;;;;;;19.43;14.23;;;;;;;;;;5072180;28;20437;-63
2022/03/25 03:03:50;;;;;;;20.67;13.43;;;;;;;;;;5072074;28;20929;-64
2022/03/25 03:06:16;;;;;;;20.43;14.53;;;;;;;;;;5072274;28;20430;-63
2022/03/25 03:08:42;;;;;;;19.57;13.63;;;;;;;;;;5071913;28;20521;-63
2022/03/25 03:11:08;;;;;;;19.80;14.80;;;;;;;;;;5072015;28;20657;-63
2022/03/25 03:13:35;;;;;;;19.37;14.33;;;;;;;;;;5071989;28;20433;-63
2022/03/25 03:16:01;;;;;;;21.47;14.97;;;;;;;;;;5071944;28;20462;-63
2022/03/25 03:18:27;;;;;;;20.10;13.83;;;;;;;;;;5071874;28;20505;-63
2022/03/25 03:20:54;;;;;;;20.50;13.80;;;;;;;;;;5071953;28;20461;-63
2022/03/25 03:23:19;;;;;;;21.77;13.83;;;;;;;;;;5071815;28;20600;-63
2022/03/25 03:25:46;;;;;;;22.00;14.20;;;;;;;;;;5071776;28;20491;-63
2022/03/25 03:28:13;;;;;;;20.67;13.70;;;;;;;;;;5072038;28;20191;-63
2022/03/25 03:30:40;;;;;;;21.73;13.93;;;;;;;;;;5071878;28;20505;-63
2022/03/25 03:33:06;;;;;;;20.17;14.07;;;;;;;;;;5071686;28;20442;-63
2022/03/25 03:35:34;;;;;;;19.50;13.37;;;;;;;;;;5071681;28;20441;-63
2022/03/25 03:38:00;;;;;;;19.93;13.17;;;;;;;;;;5071821;28;20504;-63
2022/03/25 03:40:26;;;;;;;15.57;12.90;;;;;;;;;;5071615;28;20442;-63
2022/03/25 03:42:52;;;;;;;19.63;14.43;;;;;;;;;;5071724;28;20499;-64
2022/03/25 03:45:18;;;;;;;18.27;13.77;;;;;;;;;;5071756;28;20299;-63
2022/03/25 03:47:46;;;;;;;17.63;13.23;;;;;;;;;;5071731;28;20444;-64
2022/03/25 03:50:13;;;;;;;17.33;12.67;;;;;;;;;;5071704;28;20434;-64
2022/03/25 03:52:40;;;;;;;21.37;12.87;;;;;;;;;;5071473;28;20928;-63
2022/03/25 03:55:07;;;;;;;19.60;12.53;;;;;;;;;;5071661;28;20464;-63
2022/03/25 03:57:34;;;;;;;17.43;12.57;;;;;;;;;;5071438;28;20441;-63
2022/03/25 04:00:00;;;;;;;18.63;12.23;;;;;;;;;;5071687;28;20430;-63
2022/03/25 04:02:26;;;;;;;18.43;12.20;;;;;;;;;;5071527;28;20438;-63
2022/03/25 04:04:53;;;;;;;18.27;13.20;;;;;;;;;;5074577;28;20658;-63
2022/03/25 04:07:20;;;;;;;20.03;12.60;;;;;;;;;;5075260;28;20218;-63
2022/03/25 04:09:46;;;;;;;16.73;13.50;;;;;;;;;;5075145;28;21043;-63
2022/03/25 04:12:13;;;;;;;15.73;12.10;;;;;;;;;;5075417;28;20576;-63
2022/03/25 04:14:39;;;;;;;17.30;13.30;;;;;;;;;;5075193;28;20219;-64
2022/03/25 04:17:05;;;;;;;19.97;11.77;;;;;;;;;;5075122;28;20434;-63
2022/03/25 04:19:31;;;;;;;16.47;12.00;;;;;;;;;;5075008;28;20849;-63
2022/03/25 04:21:58;;;;;;;17.97;12.87;;;;;;;;;;5075256;28;20290;-63
2022/03/25 04:24:24;;;;;;;19.43;13.00;;;;;;;;;;5074477;28;20235;-63
2022/03/25 04:26:50;;;;;;;16.90;12.57;;;;;;;;;;5074879;28;20510;-63
2022/03/25 04:29:18;;;;;;;15.63;12.97;;;;;;;;;;5075100;28;20207;-63
2022/03/25 04:31:45;;;;;;;16.83;12.67;;;;;;;;;;5074710;28;20207;-63
2022/03/25 04:34:11;;;;;;;17.30;12.47;;;;;;;;;;5074888;28;20432;-63
2022/03/25 04:36:37;;;;;;;17.67;12.50;;;;;;;;;;5074742;28;20453;-62
2022/03/25 04:39:05;;;;;;;16.43;12.07;;;;;;;;;;5074772;28;20223;-62
2022/03/25 04:41:31;;;;;;;15.40;12.00;;;;;;;;;;5074758;28;20196;-63
2022/03/25 04:43:57;;;;;;;17.40;11.57;;;;;;;;;;5074792;28;21086;-62
2022/03/25 04:46:23;;;;;;;19.23;13.43;;;;;;;;;;5074665;28;20568;-63
2022/03/25 04:48:49;;;;;;;17.47;12.57;;;;;;;;;;5074476;28;20438;-63
2022/03/25 04:51:15;;;;;;;18.20;12.10;;;;;;;;;;5074577;28;20692;-63
2022/03/25 04:53:42;;;;;;;14.43;11.60;;;;;;;;;;5074456;28;20461;-63
2022/03/25 04:56:09;;;;;;;17.70;11.50;;;;;;;;;;5074431;28;20203;-63
2022/03/25 04:58:35;;;;;;;18.37;12.30;;;;;;;;;;5074218;28;20488;-63
2022/03/25 05:01:02;;;;;;;17.50;12.20;;;;;;;;;;5074525;28;20430;-63
2022/03/25 05:03:28;;;;;;;17.63;12.60;;;;;;;;;;5074204;28;20437;-63
2022/03/25 05:05:54;;;;;;;16.67;12.53;;;;;;;;;;5074148;28;20916;-63
2022/03/25 05:08:21;;;;;;;18.90;12.37;;;;;;;;;;5074295;28;20442;-63
2022/03/25 05:10:47;;;;;;;17.77;12.87;;;;;;;;;;5073913;28;20234;-63
2022/03/25 05:13:14;;;;;;;23.43;14.13;;;;;;;;;;5074132;28;20454;-63
2022/03/25 05:15:40;;;;;;;17.63;12.97;;;;;;;;;;5073784;28;20598;-63
2022/03/25 05:18:06;;;;;;;17.27;12.97;;;;;;;;;;5073960;28;20883;-63
2022/03/25 05:20:32;;;;;;;18.30;12.90;;;;;;;;;;5073815;28;20257;-63
2022/03/25 05:22:58;;;;;;;16.67;12.00;;;;;;;;;;5073994;28;20446;-63
2022/03/25 05:25:24;;;;;;;17.43;13.07;;;;;;;;;;5073621;28;20842;-63
2022/03/25 05:27:52;;;;;;;15.97;11.43;;;;;;;;;;5073765;28;20425;-63
2022/03/25 05:30:21;;;;;;;18.40;13.10;;;;;;;;;;5073875;28;20430;-63
2022/03/25 05:32:47;;;;;;;19.10;12.37;;;;;;;;;;5073733;28;20446;-63
2022/03/25 05:35:13;;;;;;;22.37;12.50;;;;;;;;;;5073570;28;20496;-63
2022/03/25 05:37:39;;;;;;;17.97;12.57;;;;;;;;;;5073514;28;20438;-63
2022/03/25 05:40:06;;;;;;;17.70;12.57;;;;;;;;;;5073495;28;20517;-63
2022/03/25 05:42:32;;;;;;;22.17;12.77;;;;;;;;;;5073464;28;20448;-63
2022/03/25 05:44:59;;;;;;;17.13;12.53;;;;;;;;;;5073251;28;20990;-63
2022/03/25 05:47:26;;;;;;;16.20;12.57;;;;;;;;;;5073390;28;20453;-63
2022/03/25 05:49:52;;;;;;;18.17;13.00;;;;;;;;;;5073312;28;20438;-63
2022/03/25 05:52:18;;;;;;;18.80;13.00;;;;;;;;;;5073125;28;20504;-62
2022/03/25 05:54:44;;;;;;;17.67;12.30;;;;;;;;;;5073133;28;20210;-63
2022/03/25 05:57:10;;;;;;;19.17;12.77;;;;;;;;;;5073352;28;20838;-63
2022/03/25 05:59:36;;;;;;;16.93;12.47;;;;;;;;;;5072930;28;20531;-63
2022/03/25 06:02:03;;;;;;;21.53;12.57;;;;;;;;;;5072855;28;20437;-63
2022/03/25 06:04:30;;;;;;;18.80;11.93;;;;;;;;;;5073097;28;20534;-63
2022/03/25 06:06:56;;;;;;;18.30;11.63;;;;;;;;;;5072959;28;20966;-62
2022/03/25 06:09:22;;;;;;;16.20;11.43;;;;;;;;;;5072918;28;20437;-63
2022/03/25 06:11:49;;;;;;;16.67;12.53;;;;;;;;;;5072110;28;20448;-63
2022/03/25 06:14:15;;;;;;;17.33;12.07;;;;;;;;;;5072929;28;20226;-63
2022/03/25 06:16:41;;;;;;;16.60;12.43;;;;;;;;;;5072638;28;20438;-63
2022/03/25 06:19:07;;;;;;;15.37;11.23;;;;;;;;;;5072302;28;20227;-63
2022/03/25 06:21:34;;;;;;;15.77;11.03;;;;;;;;;;5072246;28;20195;-63
2022/03/25 06:24:00;;;;;;;21.57;11.97;;;;;;;;;;5072344;28;20230;-63
2022/03/25 06:26:26;;;;;;;19.53;12.20;;;;;;;;;;5071701;28;20465;-63
2022/03/25 06:28:52;;;;;;;17.83;12.47;;;;;;;;;;5072262;28;20446;-63
2022/03/25 06:31:18;;;;;;;18.43;11.07;;;;;;;;;;5072503;28;20274;-63
2022/03/25 06:33:44;;;;;;;20.37;12.17;;;;;;;;;;5072367;28;20868;-63
2022/03/25 06:36:13;;;;;;;14.07;11.20;;;;;;;;;;5072268;28;20253;-63
2022/03/25 06:38:40;;;;;;;15.63;10.70;;;;;;;;;;5072098;28;20224;-63
2022/03/25 06:41:07;;;;;;;18.57;12.13;;;;;;;;;;5072155;28;20433;-63
2022/03/25 06:43:34;;;;;;;19.63;12.13;;;;;;;;;;5072290;28;20844;-63
2022/03/25 06:46:00;;;;;;;21.77;12.10;;;;;;;;;;5072387;28;20486;-64
2022/03/25 06:48:26;;;;;;;20.70;11.40;;;;;;;;;;5072196;28;20850;-64
2022/03/25 06:50:53;;;;;;;16.97;11.20;;;;;;;;;;5072249;28;20542;-65
2022/03/25 06:53:19;;;;;;;15.57;11.20;;;;;;;;;;5072141;28;20447;-65
2022/03/25 06:55:47;;;;;;;19.07;11.23;;;;;;;;;;5072203;28;20438;-65
2022/03/25 06:58:13;;;;;;;16.00;11.37;;;;;;;;;;5071994;28;20503;-65
2022/03/25 07:00:40;;;;;;;17.53;10.67;;;;;;;;;;5072057;28;20529;-64
2022/03/25 07:03:06;;;;;;;18.00;12.33;;;;;;;;;;5071972;28;20511;-64
2022/03/25 07:05:33;;;;;;;16.20;10.57;;;;;;;;;;5072046;28;20544;-63
2022/03/25 07:07:59;;;;;;;16.87;11.43;;;;;;;;;;5072097;28;20430;-64
2022/03/25 07:10:26;;;;;;;18.27;11.17;;;;;;;;;;5071963;28;20434;-64
2022/03/25 07:12:54;;;;;;;18.10;12.80;;;;;;;;;;5071844;28;20426;-64
2022/03/25 07:15:20;;;;;;;13.73;10.70;;;;;;;;;;5071699;28;20448;-64
2022/03/25 07:17:47;;;;;;;16.70;10.73;;;;;;;;;;5071760;28;20438;-57
2022/03/25 07:20:14;;;;;;;14.63;10.63;;;;;;;;;;5071954;28;20968;-64
2022/03/25 07:22:40;;;;;;;16.83;11.33;;;;;;;;;;5071749;28;20491;-59
2022/03/25 07:25:06;;;;;;;20.70;12.17;;;;;;;;;;5071234;28;20968;-61
2022/03/25 07:27:32;;;;;;;16.13;10.93;;;;;;;;;;5071829;28;20445;-59
2022/03/25 07:30:00;;;;;;;18.90;12.10;;;;;;;;;;5072073;28;20437;-59
2022/03/25 07:32:26;;;;;;;20.33;12.30;;;;;;;;;;5071904;28;20203;-59
2022/03/25 07:34:52;;;;;;;16.60;12.17;;;;;;;;;;5071797;28;20195;-59
2022/03/25 07:37:18;;;;;;;21.17;12.60;;;;;;;;;;5072359;28;20442;-60
2022/03/25 07:39:44;;;;;;;19.63;12.67;;;;;;;;;;5075379;28;20480;-60
2022/03/25 07:42:10;;;;;;;16.20;11.73;;;;;;;;;;5075376;28;20923;-60
2022/03/25 07:44:39;;;;;;;19.13;13.33;;;;;;;;;;5075395;28;20199;-60
2022/03/25 07:47:07;;;;;;;19.77;13.57;;;;;;;;;;5075640;28;20203;-60
2022/03/25 07:49:34;;;;;;;17.33;12.17;;;;;;;;;;5075366;28;20196;-60
2022/03/25 07:52:00;;;;;;;19.17;12.40;;;;;;;;;;5075446;28;20204;-60
2022/03/25 07:54:26;;;;;;;19.73;13.07;;;;;;;;;;5075197;28;20192;-60
2022/03/25 07:56:55;;;;;;;17.83;13.23;;;;;;;;;;5075160;28;20261;-60
2022/03/25 07:59:21;;;;;;;20.00;13.83;;;;;;;;;;5075109;28;20302;-60
2022/03/25 08:01:47;;;;;;;18.13;12.77;;;;;;;;;;5075066;28;20654;-60
2022/03/25 08:04:15;;;;;;;20.37;13.30;;;;;;;;;;5075260;28;20194;-60
2022/03/25 08:06:42;;;;;;;18.40;15.15;;;;;;;;;;5073765;28;20951;-60
2022/03/25 08:09:08;;;;;;;20.23;12.33;;;;;;;;;;5075034;28;20310;-60
2022/03/25 08:11:34;;;;;;;20.63;14.13;;;;;;;;;;5075126;28;20274;-60
2022/03/25 08:14:00;;;;;;;19.97;12.93;;;;;;;;;;5074991;28;20538;-60
2022/03/25 08:16:26;;;;;;;14.97;12.73;;;;;;;;;;5074744;28;20203;-59
2022/03/25 08:18:52;;;;;;;16.73;12.63;;;;;;;;;;5074535;28;20231;-60
2022/03/25 08:21:20;;;;;;;15.20;13.03;;;;;;;;;;5074799;28;20200;-60
2022/03/25 08:29:17;;;;;;;22.10;14.03;;;;;;;;;;5074800;28;20340;-59
2022/03/25 08:31:43;;;;;;;21.13;13.40;;;;;;;;;;5074610;28;20200;-59
2022/03/25 08:34:14;;;;;;;19.47;12.73;;;;;;;;;;5074596;28;20287;-60
2022/03/25 08:36:41;;;;;;;19.77;13.03;;;;;;;;;;5074420;28;20224;-60
2022/03/25 08:39:07;;;;;;;23.47;13.33;;;;;;;;;;5074321;28;20721;-60
2022/03/25 08:41:33;;;;;;;18.77;13.00;;;;;;;;;;5074285;28;20616;-60
2022/03/25 08:43:59;;;;;;;20.27;12.80;;;;;;;;;;5074370;28;20227;-60
2022/03/25 08:46:25;;;;;;;16.77;13.83;;;;;;;;;;5074294;28;20245;-60
2022/03/25 08:48:52;;;;;;;21.93;13.47;;;;;;;;;;5073607;28;20275;-59
2022/03/25 08:51:18;;;;;;;21.17;12.83;;;;;;;;;;5073873;28;20208;-60
2022/03/25 08:53:46;;;;;;;21.70;13.73;;;;;;;;;;5073828;28;20207;-59
2022/03/25 08:56:12;;;;;;;24.20;12.47;;;;;;;;;;5074282;28;20200;-60
2022/03/25 08:58:39;;;;;;;18.27;12.47;;;;;;;;;;5073899;28;20258;-60
2022/03/25 09:01:05;;;;;;;22.10;12.90;;;;;;;;;;5074226;28;20202;-60
2022/03/25 09:03:32;;;;;;;19.43;12.63;;;;;;;;;;5074226;28;20658;-60
2022/03/25 09:05:58;;;;;;;14.83;11.87;;;;;;;;;;5074186;28;20207;-58
2022/03/25 09:08:24;;;;;;;19.93;11.97;;;;;;;;;;5074235;28;20192;-61
2022/03/25 09:10:53;;;;;;;17.63;11.30;;;;;;;;;;5073843;28;20200;-60
2022/03/25 09:13:19;;;;;;;29.30;11.50;;;;;;;;;;5074218;28;20372;-57
2022/03/25 09:15:46;;;;;;;20.17;11.63;;;;;;;;;;5074160;28;20184;-56
2022/03/25 09:18:12;;;;;;;16.47;11.40;;;;;;;;;;5074038;28;20310;-56
2022/03/25 09:20:38;;;;;;;15.83;11.57;;;;;;;;;;5074001;28;20688;-58
2022/03/25 09:23:04;;;;;;;17.90;11.53;;;;;;;;;;5074002;28;20191;-56
2022/03/25 09:25:30;;;;;;;18.50;11.13;;;;;;;;;;5073978;28;20241;-55
2022/03/25 09:27:58;;;;;;;21.67;12.10;;;;;;;;;;5074062;28;20202;-57
2022/03/25 09:30:24;;;;;;;18.90;11.03;;;;;;;;;;5074049;28;20198;-59
2022/03/25 09:32:50;;;;;;;19.20;11.23;;;;;;;;;;5073769;28;20713;-59
2022/03/25 09:35:16;;;;;;;16.83;12.23;;;;;;;;;;5073854;28;20202;-57
2022/03/25 09:37:43;;;;;;;15.73;10.87;;;;;;;;;;5073291;28;20208;-61
2022/03/25 09:40:10;;;;;;;14.43;10.53;;;;;;;;;;5073553;28;20235;-57
2022/03/25 09:42:37;;;;;;;15.23;11.00;;;;;;;;;;5073606;28;20215;-57
2022/03/25 09:45:05;;;;;;;16.07;11.23;;;;;;;;;;5073587;28;20204;-58
2022/03/25 09:47:32;;;;;;;14.70;10.07;;;;;;;;;;5073612;28;20207;-59
2022/03/25 09:49:58;;;;;;;18.03;10.77;;;;;;;;;;5073503;28;20407;-58
2022/03/25 09:52:26;;;;;;;16.27;11.30;;;;;;;;;;5071661;28;20265;-58
2022/03/25 09:54:52;;;;;;;14.27;10.23;;;;;;;;;;5073033;28;20640;-58
2022/03/25 09:57:18;;;;;;;14.93;10.87;;;;;;;;;;5072994;28;20613;-58
2022/03/25 09:59:45;;;;;;;14.37;10.57;;;;;;;;;;5073059;28;20281;-58
2022/03/25 10:02:12;;;;;;;18.13;10.77;;;;;;;;;;5072158;28;20746;-58
2022/03/25 10:04:42;;;;;;;15.50;10.27;;;;;;;;;;5073004;28;20207;-58
2022/03/25 10:07:19;;;;;;;12.77;9.60;;;;;;;;;;5073079;28;20241;-58
2022/03/25 10:09:45;;;;;;;19.43;10.60;;;;;;;;;;5072996;28;20206;-58
2022/03/25 10:12:24;;;;;;;16.07;10.70;;;;;;;;;;5073032;28;20200;-58
2022/03/25 10:14:51;;;;;;;14.80;10.50;;;;;;;;;;5072735;28;20195;-58
2022/03/25 10:17:19;;;;;;;15.80;10.30;;;;;;;;;;5072955;28;20618;-58
2022/03/25 10:19:49;;;;;;;13.43;10.17;;;;;;;;;;5072780;28;20220;-58
2022/03/25 10:22:16;;;;;;;16.70;10.27;;;;;;;;;;5072934;28;20210;-58
2022/03/25 10:24:44;;;;;;;16.93;12.07;;;;;;;;;;5072453;28;20240;-58
2022/03/25 10:27:10;;;;;;;20.73;13.87;;;;;;;;;;5072748;28;20197;-58
2022/03/25 10:29:36;;;;;;;18.83;11.10;;;;;;;;;;5072646;28;20197;-58
2022/03/25 10:32:03;;;;;;;17.90;13.03;;;;;;;;;;5072671;28;20216;-58
2022/03/25 10:34:31;;;;;;;17.47;12.43;;;;;;;;;;5072502;28;20210;-59
2022/03/25 10:37:00;;;;;;;20.93;14.33;;;;;;;;;;5072439;28;20206;-58
2022/03/25 10:39:27;;;;;;;21.60;15.47;;;;;;;;;;5072454;28;20224;-59
2022/03/25 10:41:57;;;;;;;19.00;11.37;;;;;;;;;;5072437;28;20632;-58
2022/03/25 10:44:32;;;;;;;18.83;12.43;;;;;;;;;;5072185;28;20569;-58
2022/03/25 10:46:58;;;;;;;15.63;12.07;;;;;;;;;;5072441;28;20208;-58
2022/03/25 10:49:24;;;;;;;18.80;13.30;;;;;;;;;;5072293;28;20229;-58
2022/03/25 10:51:55;;;;;;;25.63;19.30;;;;;;;;;;5072234;28;20195;-58
2022/03/25 10:54:23;;;;;;;19.70;15.27;;;;;;;;;;5072190;28;20476;-58
2022/03/25 10:56:50;;;;;;;23.00;15.50;;;;;;;;;;5071916;28;20297;-60
2022/03/25 10:59:23;;;;;;;19.77;16.10;;;;;;;;;;5072248;28;20716;-58
2022/03/25 11:01:50;;;;;;;21.73;17.97;;;;;;;;;;5072206;28;20218;-60
2022/03/25 11:04:16;;;;;;;21.17;17.70;;;;;;;;;;5072250;28;20199;-60
2022/03/25 11:06:43;;;;;;;24.83;18.83;;;;;;;;;;5071988;28;20201;-60
2022/03/25 11:09:11;;;;;;;20.07;17.57;;;;;;;;;;5072033;28;20819;-57
2022/03/25 11:11:37;;;;;;;25.83;21.30;;;;;;;;;;5072016;28;20642;-60
2022/03/25 11:14:04;;;;;;;27.47;21.17;;;;;;;;;;5071659;28;20536;-58
2022/03/25 11:16:32;;;;;;;25.13;21.53;;;;;;;;;;5072193;28;20197;-57
2022/03/25 11:18:59;;;;;;;30.67;24.37;;;;;;;;;;5071931;28;20235;-58
2022/03/25 11:21:26;;;;;;;28.77;24.10;;;;;;;;;;5071799;28;20585;-58
2022/03/25 11:23:53;;;;;;;26.23;22.20;;;;;;;;;;5071642;28;20224;-58
2022/03/25 11:26:22;;;;;;;29.23;23.30;;;;;;;;;;5071903;28;20607;-58
2022/03/25 11:28:51;;;;;;;26.93;23.83;;;;;;;;;;5070057;28;20204;-58
2022/03/25 11:31:17;;;;;;;38.10;30.00;;;;;;;;;;5071777;28;20285;-58
2022/03/25 11:34:01;;;;;;;39.37;29.30;;;;;;;;;;5071778;28;20196;-58
2022/03/25 11:36:27;;;;;;;38.47;30.77;;;;;;;;;;5071992;28;20189;-60
2022/03/25 11:39:16;;;;;;;34.03;24.73;;;;;;;;;;5071629;28;20294;-58
2022/03/25 11:41:43;;;;;;;28.50;25.17;;;;;;;;;;5071881;28;20197;-59
2022/03/25 11:44:17;;;;;;;28.77;23.57;;;;;;;;;;5071829;28;20210;-60
2022/03/25 11:47:03;;;;;;;31.07;24.13;;;;;;;;;;5071648;28;20227;-58
2022/03/25 11:49:29;;;;;;;25.30;21.23;;;;;;;;;;5071822;28;20228;-58
2022/03/25 11:51:55;;;;;;;25.23;19.20;;;;;;;;;;5071573;28;20263;-58
2022/03/25 11:54:37;;;;;;;22.97;18.53;;;;;;;;;;5069565;28;20197;-58
2022/03/25 11:57:06;;;;;;;26.30;19.83;;;;;;;;;;5071113;28;20193;-58
2022/03/25 11:59:47;;;;;;;25.23;20.27;;;;;;;;;;5071104;28;20229;-58
2022/03/25 12:02:23;;;;;;;26.47;20.90;;;;;;;;;;5071257;28;20215;-57
2022/03/25 12:04:49;;;;;;;22.30;19.67;;;;;;;;;;5070853;28;20200;-58
2022/03/25 12:07:16;;;;;;;27.07;21.63;;;;;;;;;;5071012;28;20569;-58
2022/03/25 12:09:46;;;;;;;32.43;22.97;;;;;;;;;;5070651;28;20225;-58
2022/03/25 12:12:14;;;;;;;27.53;22.00;;;;;;;;;;5070976;28;20658;-58
2022/03/25 12:14:54;;;;;;;24.43;19.53;;;;;;;;;;5071205;28;20205;-58
2022/03/25 12:17:24;;;;;;;27.17;21.57;;;;;;;;;;5070978;28;20213;-58
2022/03/25 12:19:51;;;;;;;27.63;20.30;;;;;;;;;;5071019;28;20680;-58
2022/03/25 12:22:30;;;;;;;27.30;20.30;;;;;;;;;;5071253;28;20194;-58
2022/03/25 12:24:58;;;;;;;27.43;21.57;;;;;;;;;;5072399;28;20321;-58
2022/03/25 12:27:26;;;;;;;27.70;21.30;;;;;;;;;;5074948;28;20201;-58
2022/03/25 12:29:54;;;;;;;31.07;22.10;;;;;;;;;;5074917;28;20263;-58
2022/03/25 12:32:21;;;;;;;23.77;20.53;;;;;;;;;;5074716;28;20206;-59
2022/03/25 12:34:52;;;;;;;22.83;20.30;;;;;;;;;;5074905;28;20195;-58
2022/03/25 12:37:22;;;;;;;27.93;20.87;;;;;;;;;;5074764;28;20294;-59
2022/03/25 12:39:48;;;;;;;28.37;21.23;;;;;;;;;;5074620;28;20241;-58
2022/03/25 12:42:14;;;;;;;29.10;21.00;;;;;;;;;;5074834;28;20203;-58
2022/03/25 12:44:41;;;;;;;22.13;17.13;;;;;;;;;;5074523;28;20294;-59
2022/03/25 12:47:15;;;;;;;22.63;19.77;;;;;;;;;;5074492;28;20665;-59
2022/03/25 12:49:41;;;;;;;25.63;18.97;;;;;;;;;;5074559;28;20193;-59
2022/03/25 12:52:07;;;;;;;20.97;18.00;;;;;;;;;;5074655;28;20194;-59
2022/03/25 12:54:34;;;;;;;25.83;19.47;;;;;;;;;;5074452;28;20266;-59
2022/03/25 12:57:02;;;;;;;23.87;17.80;;;;;;;;;;5074511;28;20664;-59
2022/03/25 12:59:28;;;;;;;22.17;17.23;;;;;;;;;;5074359;28;20232;-59
2022/03/25 13:01:55;;;;;;;21.43;17.50;;;;;;;;;;5074116;28;20222;-59
2022/03/25 13:04:28;;;;;;;22.77;17.23;;;;;;;;;;5074370;28;20208;-59
2022/03/25 13:06:56;;;;;;;15.23;12.00;;;;;;;;;;5074354;28;20224;-60
2022/03/25 13:09:23;;;;;;;18.47;11.63;;;;;;;;;;5074148;28;20203;-59
2022/03/25 13:11:52;;;;;;;19.77;13.93;;;;;;;;;;5074128;28;20207;-59
2022/03/25 13:14:19;;;;;;;13.27;11.00;;;;;;;;;;5074269;28;20208;-59
2022/03/25 13:16:46;;;;;;;15.43;8.93;;;;;;;;;;5073955;28;20563;-59
2022/03/25 13:19:13;;;;;;;21.13;14.47;;;;;;;;;;5074048;28;20227;-59
2022/03/25 13:21:39;;;;;;;16.10;13.47;;;;;;;;;;5073951;28;20208;-57
2022/03/25 13:24:06;;;;;;;19.67;14.83;;;;;;;;;;5073494;28;20224;-59
2022/03/25 13:26:32;;;;;;;22.07;14.77;;;;;;;;;;5073998;28;20244;-59
2022/03/25 13:28:58;;;;;;;18.57;12.17;;;;;;;;;;5073793;28;20717;-60
2022/03/25 13:31:24;;;;;;;18.97;12.80;;;;;;;;;;5073841;28;20247;-60
2022/03/25 13:33:51;;;;;;;14.83;11.00;;;;;;;;;;5073721;28;20197;-60
2022/03/25 13:36:25;;;;;;;16.77;11.57;;;;;;;;;;5073683;28;20663;-60
2022/03/25 13:38:52;;;;;;;19.53;14.17;;;;;;;;;;5073538;28;20235;-58
2022/03/25 13:41:22;;;;;;;19.13;12.67;;;;;;;;;;5073616;28;20202;-58
2022/03/25 13:43:49;;;;;;;17.47;13.33;;;;;;;;;;5073588;28;20203;-59
2022/03/25 13:46:19;;;;;;;16.83;13.27;;;;;;;;;;5073710;28;20200;-58
2022/03/25 13:48:46;;;;;;;17.43;13.77;;;;;;;;;;5073378;28;20254;-58
2022/03/25 13:51:17;;;;;;;17.60;12.73;;;;;;;;;;5073650;28;20204;-58
2022/03/25 13:53:45;;;;;;;18.73;14.40;;;;;;;;;;5073357;28;20203;-58
2022/03/25 13:56:13;;;;;;;19.33;13.67;;;;;;;;;;5073456;28;20212;-58
2022/03/25 13:58:40;;;;;;;19.90;12.00;;;;;;;;;;5073117;28;20220;-58
2022/03/25 14:01:06;;;;;;;20.43;11.23;;;;;;;;;;5073225;28;20262;-59
2022/03/25 14:03:33;;;;;;;17.67;12.50;;;;;;;;;;5073207;28;20257;-58
2022/03/25 14:06:09;;;;;;;16.13;12.10;;;;;;;;;;5073049;28;20628;-58
2022/03/25 14:08:35;;;;;;;16.97;12.80;;;;;;;;;;5072948;28;20201;-57
2022/03/25 14:11:03;;;;;;;17.87;12.13;;;;;;;;;;5073100;28;20275;-58
2022/03/25 14:13:29;;;;;;;18.33;12.37;;;;;;;;;;5073116;28;20205;-59
2022/03/25 14:16:12;;;;;;;21.37;12.23;;;;;;;;;;5072946;28;20287;-58
2022/03/25 14:18:47;;;;;;;17.80;10.97;;;;;;;;;;5072838;28;20265;-58
2022/03/25 14:21:22;;;;;;;17.73;10.63;;;;;;;;;;5072863;28;20734;-58